sensor_id;sensor_type;location;lat;lon;timestamp;pressure;altitude;pressure_sealevel;temperature;humidity
36242;BME280;22283;42.748;12.732;2024-01-30T00:02:34;99880.03;;;-0.92;88.35
36242;BME280;22283;42.748;12.732;2024-01-30T00:07:34;99884.34;;;-0.92;88.50
36242;BME280;22283;42.748;12.732;2024-01-30T00:12:35;99880.91;;;-0.97;88.44
36242;BME280;22283;42.748;12.732;2024-01-30T00:17:36;99881.72;;;-1.03;88.92
36242;BME280;22283;42.748;12.732;2024-01-30T00:22:37;99883.47;;;-0.96;88.08
36242;BME280;22283;42.748;12.732;2024-01-30T00:27:38;99879.16;;;-1.06;87.97
36242;BME280;22283;42.748;12.732;2024-01-30T00:32:39;99878.28;;;-1.10;88.08
36242;BME280;22283;42.748;12.732;2024-01-30T00:37:39;99882.59;;;-1.13;88.34
36242;BME280;22283;42.748;12.732;2024-01-30T00:42:40;99893.00;;;-1.13;87.18
36242;BME280;22283;42.748;12.732;2024-01-30T00:47:41;99886.91;;;-1.20;87.31
36242;BME280;22283;42.748;12.732;2024-01-30T00:52:42;99884.28;;;-1.23;87.42
36242;BME280;22283;42.748;12.732;2024-01-30T00:57:45;99891.19;;;-1.31;87.18
36242;BME280;22283;42.748;12.732;2024-01-30T01:02:45;99894.66;;;-1.38;88.40
36242;BME280;22283;42.748;12.732;2024-01-30T01:07:46;99892.06;;;-1.41;88.17
36242;BME280;22283;42.748;12.732;2024-01-30T01:12:48;99885.09;;;-1.44;88.02
36242;BME280;22283;42.748;12.732;2024-01-30T01:17:49;99889.44;;;-1.46;88.36
36242;BME280;22283;42.748;12.732;2024-01-30T01:22:49;99885.97;;;-1.43;89.41
36242;BME280;22283;42.748;12.732;2024-01-30T01:27:50;99885.97;;;-1.43;88.61
36242;BME280;22283;42.748;12.732;2024-01-30T01:32:53;99884.22;;;-1.52;88.11
36242;BME280;22283;42.748;12.732;2024-01-30T01:37:58;99875.53;;;-1.65;88.90
36242;BME280;22283;42.748;12.732;2024-01-30T01:43:03;99885.91;;;-1.69;89.65
36242;BME280;22283;42.748;12.732;2024-01-30T01:48:04;99889.41;;;-1.57;90.86
36242;BME280;22283;42.748;12.732;2024-01-30T01:53:07;99890.25;;;-1.62;90.73
36242;BME280;22283;42.748;12.732;2024-01-30T01:58:09;99884.13;;;-1.72;92.10
36242;BME280;22283;42.748;12.732;2024-01-30T02:03:10;99890.16;;;-1.75;91.55
36242;BME280;22283;42.748;12.732;2024-01-30T02:08:12;99880.56;;;-1.95;91.99
36242;BME280;22283;42.748;12.732;2024-01-30T02:13:13;99883.09;;;-2.06;93.09
36242;BME280;22283;42.748;12.732;2024-01-30T02:18:13;99867.59;;;-2.02;93.58
36242;BME280;22283;42.748;12.732;2024-01-30T02:23:19;99870.16;;;-2.00;93.24
36242;BME280;22283;42.748;12.732;2024-01-30T02:28:20;99865.81;;;-2.09;93.05
36242;BME280;22283;42.748;12.732;2024-01-30T02:33:21;99861.50;;;-2.10;93.77
36242;BME280;22283;42.748;12.732;2024-01-30T02:38:24;99854.56;;;-2.12;94.66
36242;BME280;22283;42.748;12.732;2024-01-30T02:43:27;99859.66;;;-2.23;94.18
36242;BME280;22283;42.748;12.732;2024-01-30T02:48:27;99863.06;;;-2.32;94.45
36242;BME280;22283;42.748;12.732;2024-01-30T02:53:28;99868.19;;;-2.39;94.58
36242;BME280;22283;42.748;12.732;2024-01-30T02:58:28;99860.47;;;-2.30;95.31
36242;BME280;22283;42.748;12.732;2024-01-30T03:03:29;99863.13;;;-2.24;94.01
36242;BME280;22283;42.748;12.732;2024-01-30T03:08:30;99852.69;;;-2.30;94.60
36242;BME280;22283;42.748;12.732;2024-01-30T03:13:30;99854.47;;;-2.29;94.69
36242;BME280;22283;42.748;12.732;2024-01-30T03:18:31;99844.94;;;-2.27;94.59
36242;BME280;22283;42.748;12.732;2024-01-30T03:23:32;99841.41;;;-2.41;95.12
36242;BME280;22283;42.748;12.732;2024-01-30T03:28:32;99846.53;;;-2.51;95.53
36242;BME280;22283;42.748;12.732;2024-01-30T03:33:33;99843.97;;;-2.48;96.51
36242;BME280;22283;42.748;12.732;2024-01-30T03:38:34;99849.19;;;-2.38;96.36
36242;BME280;22283;42.748;12.732;2024-01-30T03:43:36;99855.19;;;-2.47;96.58
36242;BME280;22283;42.748;12.732;2024-01-30T03:48:36;99854.31;;;-2.48;97.08
36242;BME280;22283;42.748;12.732;2024-01-30T03:53:37;99856.03;;;-2.51;97.07
36242;BME280;22283;42.748;12.732;2024-01-30T03:58:37;99863.72;;;-2.62;97.63
36242;BME280;22283;42.748;12.732;2024-01-30T04:03:38;99860.19;;;-2.72;98.56
36242;BME280;22283;42.748;12.732;2024-01-30T04:08:39;99869.59;;;-2.81;99.01
36242;BME280;22283;42.748;12.732;2024-01-30T04:13:39;99865.25;;;-2.85;99.67
36242;BME280;22283;42.748;12.732;2024-01-30T04:18:40;99872.97;;;-2.91;99.51
36242;BME280;22283;42.748;12.732;2024-01-30T04:23:41;99880.69;;;-2.99;99.83
36242;BME280;22283;42.748;12.732;2024-01-30T04:28:44;99876.31;;;-3.03;100.00
36242;BME280;22283;42.748;12.732;2024-01-30T04:33:45;99876.38;;;-2.99;100.00
36242;BME280;22283;42.748;12.732;2024-01-30T04:38:45;99873.81;;;-2.95;100.00
36242;BME280;22283;42.748;12.732;2024-01-30T04:43:46;99875.56;;;-2.93;100.00
36242;BME280;22283;42.748;12.732;2024-01-30T04:48:46;99878.97;;;-2.97;100.00
36242;BME280;22283;42.748;12.732;2024-01-30T04:53:47;99875.44;;;-3.08;100.00
36242;BME280;22283;42.748;12.732;2024-01-30T04:58:48;99884.06;;;-3.08;100.00
36242;BME280;22283;42.748;12.732;2024-01-30T05:03:48;99885.75;;;-3.10;100.00
36242;BME280;22283;42.748;12.732;2024-01-30T05:08:49;99889.94;;;-3.21;100.00
36242;BME280;22283;42.748;12.732;2024-01-30T05:13:49;99890.03;;;-3.16;100.00
36242;BME280;22283;42.748;12.732;2024-01-30T05:18:50;99888.19;;;-3.25;100.00
36242;BME280;22283;42.748;12.732;2024-01-30T05:23:51;99899.44;;;-3.25;100.00
36242;BME280;22283;42.748;12.732;2024-01-30T05:28:52;99888.13;;;-3.31;100.00
36242;BME280;22283;42.748;12.732;2024-01-30T05:33:52;99887.19;;;-3.38;100.00
36242;BME280;22283;42.748;12.732;2024-01-30T05:38:53;99891.53;;;-3.35;100.00
36242;BME280;22283;42.748;12.732;2024-01-30T05:43:54;99881.16;;;-3.38;100.00
36242;BME280;22283;42.748;12.732;2024-01-30T05:48:54;99891.53;;;-3.34;100.00
36242;BME280;22283;42.748;12.732;2024-01-30T05:53:55;99898.38;;;-3.40;100.00
36242;BME280;22283;42.748;12.732;2024-01-30T05:58:56;99897.44;;;-3.47;100.00
36242;BME280;22283;42.748;12.732;2024-01-30T06:03:56;99901.00;;;-3.37;100.00
36242;BME280;22283;42.748;12.732;2024-01-30T06:08:57;99900.09;;;-3.42;100.00
36242;BME280;22283;42.748;12.732;2024-01-30T06:13:57;99901.66;;;-3.54;100.00
36242;BME280;22283;42.748;12.732;2024-01-30T06:18:58;99894.84;;;-3.46;100.00
36242;BME280;22283;42.748;12.732;2024-01-30T06:23:59;99902.63;;;-3.46;100.00
36242;BME280;22283;42.748;12.732;2024-01-30T06:29:00;99905.28;;;-3.39;100.00
36242;BME280;22283;42.748;12.732;2024-01-30T06:34:00;99906.25;;;-3.31;100.00
36242;BME280;22283;42.748;12.732;2024-01-30T06:39:03;99901.03;;;-3.34;100.00
36242;BME280;22283;42.748;12.732;2024-01-30T06:44:04;99903.63;;;-3.34;100.00
36242;BME280;22283;42.748;12.732;2024-01-30T06:49:06;99910.50;;;-3.36;100.00
36242;BME280;22283;42.748;12.732;2024-01-30T06:54:07;99915.69;;;-3.33;100.00
36242;BME280;22283;42.748;12.732;2024-01-30T06:59:08;99920.97;;;-3.27;100.00
36242;BME280;22283;42.748;12.732;2024-01-30T07:04:09;99917.56;;;-3.23;100.00
36242;BME280;22283;42.748;12.732;2024-01-30T07:09:10;99916.00;;;-3.09;100.00
36242;BME280;22283;42.748;12.732;2024-01-30T07:14:10;99908.53;;;-2.77;100.00
36242;BME280;22283;42.748;12.732;2024-01-30T07:19:11;99907.91;;;-2.42;100.00
36242;BME280;22283;42.748;12.732;2024-01-30T07:24:12;99920.28;;;-2.09;100.00
36242;BME280;22283;42.748;12.732;2024-01-30T07:29:12;99922.22;;;-1.74;97.96
36242;BME280;22283;42.748;12.732;2024-01-30T07:34:13;99929.19;;;-1.61;97.58
36242;BME280;22283;42.748;12.732;2024-01-30T07:39:15;99937.09;;;-1.29;94.61
36242;BME280;22283;42.748;12.732;2024-01-30T07:44:16;99943.22;;;-1.10;92.03
36242;BME280;22283;42.748;12.732;2024-01-30T07:49:16;99942.41;;;-0.89;92.13
36242;BME280;22283;42.748;12.732;2024-01-30T07:54:17;99954.59;;;-0.59;89.21
36242;BME280;22283;42.748;12.732;2024-01-30T07:59:18;99950.25;;;-0.26;87.52
36242;BME280;22283;42.748;12.732;2024-01-30T08:04:19;99943.28;;;0.07;82.53
36242;BME280;22283;42.748;12.732;2024-01-30T08:09:20;99947.53;;;0.41;77.41
36242;BME280;22283;42.748;12.732;2024-01-30T08:14:21;99949.09;;;0.79;72.53
36242;BME280;22283;42.748;12.732;2024-01-30T08:19:21;99950.69;;;1.12;69.91
36242;BME280;22283;42.748;12.732;2024-01-30T08:24:22;99945.44;;;1.17;74.78
36242;BME280;22283;42.748;12.732;2024-01-30T08:29:23;99948.84;;;1.30;74.81
36242;BME280;22283;42.748;12.732;2024-01-30T08:34:23;99940.91;;;1.48;74.92
36242;BME280;22283;42.748;12.732;2024-01-30T08:39:24;99944.16;;;1.73;73.26
36242;BME280;22283;42.748;12.732;2024-01-30T08:44:25;99944.91;;;1.89;72.08
36242;BME280;22283;42.748;12.732;2024-01-30T08:49:25;99937.72;;;2.12;71.12
36242;BME280;22283;42.748;12.732;2024-01-30T08:54:26;99941.91;;;2.27;70.08
36242;BME280;22283;42.748;12.732;2024-01-30T08:59:27;99940.13;;;2.32;68.81
36242;BME280;22283;42.748;12.732;2024-01-30T09:04:28;99951.16;;;2.56;68.63
36242;BME280;22283;42.748;12.732;2024-01-30T09:09:28;99957.00;;;2.79;68.05
36242;BME280;22283;42.748;12.732;2024-01-30T09:14:30;99963.63;;;3.05;67.88
36242;BME280;22283;42.748;12.732;2024-01-30T09:19:31;99965.19;;;3.18;67.64
36242;BME280;22283;42.748;12.732;2024-01-30T09:24:32;99965.81;;;3.37;67.24
36242;BME280;22283;42.748;12.732;2024-01-30T09:29:32;99961.38;;;3.40;65.72
36242;BME280;22283;42.748;12.732;2024-01-30T09:34:36;99961.06;;;3.62;64.34
36242;BME280;22283;42.748;12.732;2024-01-30T09:39:37;99961.44;;;3.91;62.02
36242;BME280;22283;42.748;12.732;2024-01-30T09:44:38;99965.34;;;4.18;60.98
36242;BME280;22283;42.748;12.732;2024-01-30T09:49:43;99956.34;;;4.33;58.71
36242;BME280;22283;42.748;12.732;2024-01-30T09:54:45;99972.59;;;4.51;57.31
36242;BME280;22283;42.748;12.732;2024-01-30T09:59:45;99968.06;;;4.59;56.37
36242;BME280;22283;42.748;12.732;2024-01-30T10:04:51;99968.53;;;4.81;56.43
36242;BME280;22283;42.748;12.732;2024-01-30T10:09:52;99965.53;;;4.98;55.92
36242;BME280;22283;42.748;12.732;2024-01-30T10:14:56;99957.97;;;5.24;55.05
36242;BME280;22283;42.748;12.732;2024-01-30T10:19:56;99950.63;;;5.38;54.86
36242;BME280;22283;42.748;12.732;2024-01-30T10:24:58;99950.22;;;5.57;54.98
36242;BME280;22283;42.748;12.732;2024-01-30T10:29:59;99936.59;;;5.78;53.05
36242;BME280;22283;42.748;12.732;2024-01-30T10:34:59;99932.66;;;5.96;52.63
36242;BME280;22283;42.748;12.732;2024-01-30T10:40:03;99928.91;;;6.05;51.14
36242;BME280;22283;42.748;12.732;2024-01-30T10:45:07;99926.22;;;6.08;51.31
36242;BME280;22283;42.748;12.732;2024-01-30T10:50:16;99925.63;;;6.29;51.30
36242;BME280;22283;42.748;12.732;2024-01-30T10:55:18;99919.97;;;6.45;51.25
36242;BME280;22283;42.748;12.732;2024-01-30T11:00:18;99922.31;;;6.55;51.13
36242;BME280;22283;42.748;12.732;2024-01-30T11:05:27;99917.75;;;6.62;50.68
36242;BME280;22283;42.748;12.732;2024-01-30T11:10:28;99907.53;;;6.81;50.77
36242;BME280;22283;42.748;12.732;2024-01-30T11:15:29;99906.97;;;6.99;50.08
36242;BME280;22283;42.748;12.732;2024-01-30T11:20:32;99906.59;;;7.11;49.56
36242;BME280;22283;42.748;12.732;2024-01-30T11:25:33;99903.44;;;7.28;48.67
36242;BME280;22283;42.748;12.732;2024-01-30T11:30:34;99895.91;;;7.44;48.08
36242;BME280;22283;42.748;12.732;2024-01-30T11:35:36;99899.06;;;7.55;47.47
36242;BME280;22283;42.748;12.732;2024-01-30T11:40:38;99882.00;;;7.67;47.23
36242;BME280;22283;42.748;12.732;2024-01-30T11:45:39;99870.16;;;7.80;46.52
36242;BME280;22283;42.748;12.732;2024-01-30T11:50:41;99868.53;;;8.01;45.81
36242;BME280;22283;42.748;12.732;2024-01-30T11:55:42;99850.59;;;8.12;45.57
36242;BME280;22283;42.748;12.732;2024-01-30T12:00:52;99851.78;;;8.27;45.41
36242;BME280;22283;42.748;12.732;2024-01-30T12:05:57;99842.66;;;8.37;44.34
36242;BME280;22283;42.748;12.732;2024-01-30T12:10:58;99826.44;;;8.48;45.13
36242;BME280;22283;42.748;12.732;2024-01-30T12:16:01;99826.72;;;8.64;44.24
36242;BME280;22283;42.748;12.732;2024-01-30T12:21:02;99817.66;;;8.71;43.79
36242;BME280;22283;42.748;12.732;2024-01-30T12:26:04;99806.75;;;8.80;42.44
36242;BME280;22283;42.748;12.732;2024-01-30T12:31:08;99792.25;;;8.91;41.51
36242;BME280;22283;42.748;12.732;2024-01-30T12:36:11;99781.34;;;9.00;42.61
36242;BME280;22283;42.748;12.732;2024-01-30T12:41:12;99773.69;;;9.14;43.01
36242;BME280;22283;42.748;12.732;2024-01-30T12:46:12;99765.69;;;9.38;41.51
36242;BME280;22283;42.748;12.732;2024-01-30T12:51:13;99760.75;;;9.50;40.41
36242;BME280;22283;42.748;12.732;2024-01-30T12:56:14;99759.09;;;9.68;39.26
36242;BME280;22283;42.748;12.732;2024-01-30T13:01:15;99750.09;;;9.72;38.32
36242;BME280;22283;42.748;12.732;2024-01-30T13:06:16;99748.25;;;9.74;38.10
36242;BME280;22283;42.748;12.732;2024-01-30T13:11:16;99746.25;;;9.79;37.44
36242;BME280;22283;42.748;12.732;2024-01-30T13:16:17;99744.72;;;9.94;37.52
36242;BME280;22283;42.748;12.732;2024-01-30T13:21:18;99745.50;;;9.96;35.66
36242;BME280;22283;42.748;12.732;2024-01-30T13:26:19;99746.50;;;9.94;36.27
36242;BME280;22283;42.748;12.732;2024-01-30T13:31:20;99746.44;;;9.95;36.58
36242;BME280;22283;42.748;12.732;2024-01-30T13:36:21;99755.75;;;10.04;37.42
36242;BME280;22283;42.748;12.732;2024-01-30T13:41:22;99750.03;;;10.13;37.84
36242;BME280;22283;42.748;12.732;2024-01-30T13:46:23;99751.75;;;10.14;37.46
36242;BME280;22283;42.748;12.732;2024-01-30T13:51:23;99754.31;;;10.16;37.47
36242;BME280;22283;42.748;12.732;2024-01-30T13:56:24;99754.19;;;10.19;36.67
36242;BME280;22283;42.748;12.732;2024-01-30T14:01:27;99754.91;;;10.22;36.85
36242;BME280;22283;42.748;12.732;2024-01-30T14:06:28;99742.47;;;10.24;37.28
36242;BME280;22283;42.748;12.732;2024-01-30T14:11:28;99756.41;;;10.29;37.65
36242;BME280;22283;42.748;12.732;2024-01-30T14:16:29;99754.25;;;10.38;37.02
36242;BME280;22283;42.748;12.732;2024-01-30T14:21:29;99759.38;;;10.41;36.88
36242;BME280;22283;42.748;12.732;2024-01-30T14:26:30;99757.81;;;10.37;36.97
36242;BME280;22283;42.748;12.732;2024-01-30T14:31:31;99751.88;;;10.31;37.05
36242;BME280;22283;42.748;12.732;2024-01-30T14:36:31;99756.41;;;10.29;37.20
36242;BME280;22283;42.748;12.732;2024-01-30T14:41:32;99763.25;;;10.33;37.18
36242;BME280;22283;42.748;12.732;2024-01-30T14:46:33;99752.41;;;10.19;37.34
36242;BME280;22283;42.748;12.732;2024-01-30T14:51:33;99764.75;;;10.00;37.91
36242;BME280;22283;42.748;12.732;2024-01-30T14:56:34;99765.28;;;9.88;37.76
36242;BME280;22283;42.748;12.732;2024-01-30T15:01:35;99766.25;;;9.66;38.57
36242;BME280;22283;42.748;12.732;2024-01-30T15:06:35;99767.53;;;9.35;41.00
36242;BME280;22283;42.748;12.732;2024-01-30T15:11:36;99757.63;;;8.98;42.44
36242;BME280;22283;42.748;12.732;2024-01-30T15:16:37;99769.84;;;8.57;44.46
36242;BME280;22283;42.748;12.732;2024-01-30T15:21:38;99781.69;;;8.22;45.61
36242;BME280;22283;42.748;12.732;2024-01-30T15:26:38;99776.66;;;7.91;46.92
36242;BME280;22283;42.748;12.732;2024-01-30T15:31:39;99787.06;;;7.70;47.77
36242;BME280;22283;42.748;12.732;2024-01-30T15:36:40;99776.38;;;7.50;49.19
36242;BME280;22283;42.748;12.732;2024-01-30T15:41:41;99782.56;;;7.22;50.92
36242;BME280;22283;42.748;12.732;2024-01-30T15:46:41;99787.09;;;6.90;52.48
36242;BME280;22283;42.748;12.732;2024-01-30T15:51:42;99787.09;;;6.62;54.60
36242;BME280;22283;42.748;12.732;2024-01-30T15:56:43;99787.84;;;6.38;56.53
36242;BME280;22283;42.748;12.732;2024-01-30T16:01:43;99785.22;;;6.07;58.13
36242;BME280;22283;42.748;12.732;2024-01-30T16:06:49;99786.03;;;5.76;59.48
36242;BME280;22283;42.748;12.732;2024-01-30T16:11:50;99791.94;;;5.52;61.08
36242;BME280;22283;42.748;12.732;2024-01-30T16:16:50;99786.84;;;5.46;61.25
36242;BME280;22283;42.748;12.732;2024-01-30T16:21:51;99788.97;;;5.31;62.18
36242;BME280;22283;42.748;12.732;2024-01-30T16:26:52;99787.88;;;5.40;62.65
36242;BME280;22283;42.748;12.732;2024-01-30T16:31:52;99787.66;;;5.15;63.64
36242;BME280;22283;42.748;12.732;2024-01-30T16:36:53;99796.47;;;4.75;66.06
36242;BME280;22283;42.748;12.732;2024-01-30T16:41:54;99819.00;;;4.43;67.58
36242;BME280;22283;42.748;12.732;2024-01-30T16:46:54;99816.59;;;4.33;68.82
36242;BME280;22283;42.748;12.732;2024-01-30T16:51:55;99821.75;;;4.37;69.04
36242;BME280;22283;42.748;12.732;2024-01-30T16:56:56;99822.75;;;4.30;69.22
36242;BME280;22283;42.748;12.732;2024-01-30T17:01:57;99820.53;;;4.12;70.08
36242;BME280;22283;42.748;12.732;2024-01-30T17:06:57;99822.66;;;3.91;71.22
36242;BME280;22283;42.748;12.732;2024-01-30T17:11:59;99830.75;;;3.79;72.75
36242;BME280;22283;42.748;12.732;2024-01-30T17:17:03;99826.50;;;3.72;73.28
36242;BME280;22283;42.748;12.732;2024-01-30T17:22:04;99834.34;;;3.72;73.65
36242;BME280;22283;42.748;12.732;2024-01-30T17:27:06;99840.63;;;4.10;70.87
36242;BME280;22283;42.748;12.732;2024-01-30T17:32:07;99837.66;;;4.28;69.34
36242;BME280;22283;42.748;12.732;2024-01-30T17:37:08;99838.38;;;4.35;68.60
36242;BME280;22283;42.748;12.732;2024-01-30T17:42:09;99843.88;;;4.24;68.88
36242;BME280;22283;42.748;12.732;2024-01-30T17:47:09;99842.19;;;4.20;68.51
36242;BME280;22283;42.748;12.732;2024-01-30T17:52:10;99850.91;;;4.21;68.58
36242;BME280;22283;42.748;12.732;2024-01-30T17:57:11;99848.78;;;3.94;69.78
36242;BME280;22283;42.748;12.732;2024-01-30T18:02:12;99846.59;;;3.72;71.46
36242;BME280;22283;42.748;12.732;2024-01-30T18:07:15;99856.59;;;3.50;72.03
36242;BME280;22283;42.748;12.732;2024-01-30T18:12:16;99860.34;;;3.33;73.08
36242;BME280;22283;42.748;12.732;2024-01-30T18:17:16;99853.50;;;3.23;73.93
36242;BME280;22283;42.748;12.732;2024-01-30T18:22:17;99856.13;;;3.23;74.02
36242;BME280;22283;42.748;12.732;2024-01-30T18:27:36;99853.06;;;3.51;73.23
36242;BME280;22283;42.748;12.732;2024-01-30T18:32:37;99852.25;;;3.47;72.72
36242;BME280;22283;42.748;12.732;2024-01-30T18:37:37;99852.50;;;3.33;74.07
36242;BME280;22283;42.748;12.732;2024-01-30T18:42:38;99854.91;;;3.44;73.50
36242;BME280;22283;42.748;12.732;2024-01-30T18:47:40;99857.59;;;3.39;73.91
36242;BME280;22283;42.748;12.732;2024-01-30T18:52:40;99858.03;;;3.13;74.11
36242;BME280;22283;42.748;12.732;2024-01-30T18:57:41;99863.66;;;2.87;75.37
36242;BME280;22283;42.748;12.732;2024-01-30T19:02:41;99858.53;;;2.80;76.60
36242;BME280;22283;42.748;12.732;2024-01-30T19:07:42;99864.63;;;2.80;77.46
36242;BME280;22283;42.748;12.732;2024-01-30T19:12:42;99864.59;;;2.82;77.73
36242;BME280;22283;42.748;12.732;2024-01-30T19:17:44;99866.66;;;2.58;78.72
36242;BME280;22283;42.748;12.732;2024-01-30T19:22:45;99855.53;;;2.41;80.62
36242;BME280;22283;42.748;12.732;2024-01-30T19:27:46;99877.38;;;2.38;82.07
36242;BME280;22283;42.748;12.732;2024-01-30T19:32:46;99866.50;;;2.69;82.06
36242;BME280;22283;42.748;12.732;2024-01-30T19:37:47;99867.34;;;2.71;81.15
36242;BME280;22283;42.748;12.732;2024-01-30T19:42:47;99877.25;;;2.47;82.78
36242;BME280;22283;42.748;12.732;2024-01-30T19:47:52;99873.97;;;2.30;83.81
36242;BME280;22283;42.748;12.732;2024-01-30T19:52:55;99877.72;;;2.08;84.84
36242;BME280;22283;42.748;12.732;2024-01-30T19:57:56;99880.34;;;2.05;85.91
36242;BME280;22283;42.748;12.732;2024-01-30T20:02:57;99875.88;;;2.16;88.05
36242;BME280;22283;42.748;12.732;2024-01-30T20:07:57;99882.94;;;2.77;82.96
36242;BME280;22283;42.748;12.732;2024-01-30T20:12:58;99879.63;;;2.66;82.42
36242;BME280;22283;42.748;12.732;2024-01-30T20:17:58;99887.44;;;2.67;82.03
36242;BME280;22283;42.748;12.732;2024-01-30T20:22:59;99885.94;;;2.50;82.35
36242;BME280;22283;42.748;12.732;2024-01-30T20:28:00;99891.53;;;2.16;84.25
36242;BME280;22283;42.748;12.732;2024-01-30T20:33:00;99893.47;;;1.99;85.75
36242;BME280;22283;42.748;12.732;2024-01-30T20:38:01;99891.84;;;1.88;85.73
36242;BME280;22283;42.748;12.732;2024-01-30T20:43:01;99889.41;;;1.68;86.44
36242;BME280;22283;42.748;12.732;2024-01-30T20:48:02;99892.09;;;1.61;88.69
36242;BME280;22283;42.748;12.732;2024-01-30T20:53:03;99897.31;;;1.61;89.29
36242;BME280;22283;42.748;12.732;2024-01-30T20:58:04;99898.28;;;1.51;90.18
36242;BME280;22283;42.748;12.732;2024-01-30T21:03:05;99890.50;;;1.41;89.91
36242;BME280;22283;42.748;12.732;2024-01-30T21:08:06;99900.09;;;1.39;91.59
36242;BME280;22283;42.748;12.732;2024-01-30T21:13:06;99899.22;;;1.40;91.71
36242;BME280;22283;42.748;12.732;2024-01-30T21:18:07;99907.97;;;1.35;91.51
36242;BME280;22283;42.748;12.732;2024-01-30T21:23:08;99899.41;;;1.16;92.84
36242;BME280;22283;42.748;12.732;2024-01-30T21:28:09;99902.94;;;1.07;93.37
36242;BME280;22283;42.748;12.732;2024-01-30T21:33:12;99890.81;;;0.98;94.49
36242;BME280;22283;42.748;12.732;2024-01-30T21:38:13;99887.34;;;1.00;95.33
36242;BME280;22283;42.748;12.732;2024-01-30T21:43:15;99876.06;;;0.99;96.06
36242;BME280;22283;42.748;12.732;2024-01-30T21:48:16;99888.19;;;1.05;95.29
36242;BME280;22283;42.748;12.732;2024-01-30T21:53:17;99879.56;;;0.90;95.36
36242;BME280;22283;42.748;12.732;2024-01-30T21:58:18;99875.25;;;0.86;96.21
36242;BME280;22283;42.748;12.732;2024-01-30T22:03:18;99889.22;;;0.73;96.25
36242;BME280;22283;42.748;12.732;2024-01-30T22:08:19;99890.13;;;0.66;97.54
36242;BME280;22283;42.748;12.732;2024-01-30T22:13:19;99897.94;;;0.69;98.41
36242;BME280;22283;42.748;12.732;2024-01-30T22:18:22;99897.94;;;0.69;98.07
36242;BME280;22283;42.748;12.732;2024-01-30T22:23:23;99892.78;;;0.60;98.31
36242;BME280;22283;42.748;12.732;2024-01-30T22:28:24;99886.72;;;0.56;98.67
36242;BME280;22283;42.748;12.732;2024-01-30T22:33:25;99898.88;;;0.54;99.48
36242;BME280;22283;42.748;12.732;2024-01-30T22:38:26;99906.69;;;0.53;99.06
36242;BME280;22283;42.748;12.732;2024-01-30T22:43:27;99899.75;;;0.52;99.25
36242;BME280;22283;42.748;12.732;2024-01-30T22:48:30;99909.34;;;0.40;99.41
36242;BME280;22283;42.748;12.732;2024-01-30T22:53:30;99908.47;;;0.44;99.90
36242;BME280;22283;42.748;12.732;2024-01-30T22:58:31;99898.06;;;0.41;99.90
36242;BME280;22283;42.748;12.732;2024-01-30T23:03:32;99905.00;;;0.39;100.00
36242;BME280;22283;42.748;12.732;2024-01-30T23:08:33;99904.16;;;0.34;100.00
36242;BME280;22283;42.748;12.732;2024-01-30T23:13:33;99891.13;;;0.34;100.00
36242;BME280;22283;42.748;12.732;2024-01-30T23:18:34;99896.34;;;0.33;100.00
36242;BME280;22283;42.748;12.732;2024-01-30T23:23:34;99897.25;;;0.26;100.00
36242;BME280;22283;42.748;12.732;2024-01-30T23:28:35;99899.88;;;0.21;100.00
36242;BME280;22283;42.748;12.732;2024-01-30T23:33:36;99888.53;;;0.34;100.00
36242;BME280;22283;42.748;12.732;2024-01-30T23:38:37;99886.81;;;0.30;100.00
36242;BME280;22283;42.748;12.732;2024-01-30T23:43:37;99899.84;;;0.27;100.00
36242;BME280;22283;42.748;12.732;2024-01-30T23:48:38;99892.94;;;0.17;100.00
36242;BME280;22283;42.748;12.732;2024-01-30T23:53:38;99885.13;;;0.18;100.00
36242;BME280;22283;42.748;12.732;2024-01-30T23:58:39;99892.03;;;0.26;100.00
